Time;durP1;ratioP1;P1;durP2;ratioP2;P2;SDS_P1;SDS_P2;PMS_P1;PMS_P2;Temp;Humidity;BMP_temperature;BMP_pressure;BME280_temperature;BME280_humidity;BME280_pressure;Samples;Min_cycle;Max_cycle;Signal;HPM_P1;HPM_P2
2023/01/06 00:01:02;;;;;;;;;;;12.00;99.90;;;;;;5090459;28;20013;-73
2023/01/06 00:03:28;;;;;;;;;;;12.00;99.90;;;;;;5074201;28;20020;-72
2023/01/06 00:05:58;;;;;;;;;;;12.10;99.90;;;;;;5056228;28;19912;-72
2023/01/06 00:08:24;;;;;;;;;;;12.10;99.90;;;;;;5074072;28;19916;-72
2023/01/06 00:10:50;;;;;;;;;;;12.10;99.90;;;;;;5090595;28;19908;-72
2023/01/06 00:13:16;;;;;;;;;;;12.10;99.90;;;;;;5094702;28;19914;-72
2023/01/06 00:15:42;;;;;;;;;;;12.10;99.90;;;;;;5093466;28;19965;-73
2023/01/06 00:18:07;;;;;;;;;;;12.10;99.90;;;;;;5074945;28;20456;-73
2023/01/06 00:20:33;;;;;;;;;;;12.20;99.90;;;;;;5075761;28;19965;-71
2023/01/06 00:22:59;;;;;;;;;;;12.20;99.90;;;;;;5094034;28;20256;-73
2023/01/06 00:25:25;;;;;;;;;;;12.20;99.90;;;;;;5094104;28;19926;-74
2023/01/06 00:27:51;;;;;;;;;;;12.30;99.90;;;;;;5093900;28;20305;-74
2023/01/06 00:30:17;;;;;;;;;;;12.30;99.90;;;;;;5094042;28;19915;-74
2023/01/06 00:32:43;;;;;;;;;;;12.30;99.90;;;;;;5093930;28;19904;-73
2023/01/06 00:35:10;;;;;;;;;;;12.40;99.90;;;;;;5093666;28;19904;-73
2023/01/06 00:37:36;;;;;;;;;;;12.40;99.90;;;;;;5094060;28;19929;-74
2023/01/06 00:40:03;;;;;;;;;;;12.40;99.90;;;;;;5093978;28;20017;-73
2023/01/06 00:42:29;;;;;;;;;;;12.40;99.90;;;;;;5094240;28;19962;-73
2023/01/06 00:44:56;;;;;;;;;;;12.40;99.90;;;;;;5075473;28;19908;-73
2023/01/06 00:47:22;;;;;;;;;;;12.40;99.90;;;;;;5093972;28;19934;-73
2023/01/06 00:49:48;;;;;;;;;;;12.50;99.90;;;;;;5092184;28;20365;-73
2023/01/06 00:52:14;;;;;;;;;;;12.50;99.90;;;;;;5093804;28;19950;-73
2023/01/06 00:54:41;;;;;;;;;;;12.50;99.90;;;;;;5093077;28;19920;-69
2023/01/06 00:57:07;;;;;;;;;;;12.50;99.90;;;;;;5093326;28;19952;-73
2023/01/06 00:59:35;;;;;;;;;;;12.50;99.90;;;;;;5093248;28;19944;-69
2023/01/06 01:02:01;;;;;;;;;;;12.60;99.90;;;;;;5093515;28;19904;-73
2023/01/06 01:04:28;;;;;;;;;;;12.50;99.90;;;;;;5075106;28;20051;-72
2023/01/06 01:06:54;;;;;;;;;;;12.60;99.90;;;;;;5093242;28;19914;-73
2023/01/06 01:09:24;;;;;;;;;;;12.50;99.90;;;;;;5093571;28;19920;-73
2023/01/06 01:14:35;;;;;;;;;;;12.60;99.90;;;;;;5093496;28;19958;-68
2023/01/06 01:17:01;;;;;;;;;;;12.60;99.90;;;;;;5093004;28;19904;-74
2023/01/06 01:19:27;;;;;;;;;;;12.60;99.90;;;;;;5093163;28;19998;-73
2023/01/06 01:21:54;;;;;;;;;;;12.60;99.90;;;;;;5092781;28;19904;-73
2023/01/06 01:24:20;;;;;;;;;;;12.70;99.90;;;;;;5092941;28;19999;-73
2023/01/06 01:26:46;;;;;;;;;;;12.70;99.90;;;;;;5092936;28;19999;-73
2023/01/06 01:29:13;;;;;;;;;;;12.70;99.90;;;;;;5093075;28;19994;-73
2023/01/06 01:31:39;;;;;;;;;;;12.70;99.90;;;;;;5092889;28;19904;-73
2023/01/06 01:34:05;;;;;;;;;;;12.70;99.90;;;;;;5092709;28;19969;-73
2023/01/06 01:36:31;;;;;;;;;;;12.80;99.90;;;;;;5092921;28;20084;-75
2023/01/06 01:38:57;;;;;;;;;;;12.80;99.90;;;;;;5092920;28;20299;-73
2023/01/06 01:41:24;;;;;;;;;;;12.80;99.90;;;;;;5092607;28;19912;-76
2023/01/06 01:43:56;;;;;;;;;;;12.80;99.90;;;;;;5092808;28;19926;-73
2023/01/06 01:46:26;;;;;;;;;;;12.80;99.90;;;;;;5092803;28;19904;-73
2023/01/06 01:48:53;;;;;;;;;;;12.90;99.90;;;;;;5092218;28;19998;-73
2023/01/06 01:51:21;;;;;;;;;;;12.90;99.90;;;;;;5092491;28;20250;-73
2023/01/06 01:53:48;;;;;;;;;;;12.90;99.90;;;;;;5092095;28;19904;-73
2023/01/06 01:56:20;;;;;;;;;;;12.90;99.90;;;;;;5092702;28;20012;-73
2023/01/06 01:58:49;;;;;;;;;;;13.00;99.90;;;;;;5092129;28;20266;-73
2023/01/06 02:01:16;;;;;;;;;;;13.00;99.90;;;;;;5091830;28;19965;-73
2023/01/06 02:03:42;;;;;;;;;;;12.90;99.90;;;;;;5092131;28;19915;-73
2023/01/06 02:06:13;;;;;;;;;;;12.90;99.90;;;;;;5092140;28;19904;-73
2023/01/06 02:08:39;;;;;;;;;;;12.90;99.90;;;;;;5092317;28;20277;-73
2023/01/06 02:11:06;;;;;;;;;;;12.90;99.90;;;;;;5092183;28;19976;-73
2023/01/06 02:13:32;;;;;;;;;;;13.00;99.90;;;;;;5073905;28;20017;-74
2023/01/06 02:16:18;;;;;;;;;;;13.00;99.90;;;;;;5092412;28;19904;-73
2023/01/06 02:19:04;;;;;;;;;;;12.90;99.90;;;;;;5072233;28;19915;-73
2023/01/06 02:21:33;;;;;;;;;;;13.00;99.90;;;;;;5040835;28;20297;-69
2023/01/06 02:24:19;;;;;;;;;;;13.00;99.90;;;;;;5092058;28;19926;-73
2023/01/06 02:27:03;;;;;;;;;;;12.90;99.90;;;;;;5091910;28;20263;-74
2023/01/06 02:29:48;;;;;;;;;;;13.00;99.90;;;;;;5091810;28;19965;-74
2023/01/06 02:32:41;;;;;;;;;;;12.90;99.90;;;;;;5073420;28;19904;-73
2023/01/06 02:35:06;;;;;;;;;;;12.90;99.90;;;;;;5086479;28;19926;-73
2023/01/06 02:37:51;;;;;;;;;;;12.90;99.90;;;;;;5091822;28;20240;-74
2023/01/06 02:40:22;;;;;;;;;;;12.90;99.90;;;;;;5091439;28;19991;-73
2023/01/06 02:43:07;;;;;;;;;;;12.90;99.90;;;;;;5073299;28;20201;-73
2023/01/06 02:45:38;;;;;;;;;;;12.90;99.90;;;;;;5091771;28;19904;-74
2023/01/06 02:48:10;;;;;;;;;;;12.90;99.90;;;;;;5091605;28;20403;-73
2023/01/06 02:50:50;;;;;;;;;;;12.90;99.90;;;;;;5073097;28;19904;-73
2023/01/06 02:53:20;;;;;;;;;;;12.90;99.90;;;;;;5072863;28;19961;-73
2023/01/06 02:55:47;;;;;;;;;;;12.90;99.90;;;;;;5091231;28;19919;-73
2023/01/06 02:58:31;;;;;;;;;;;12.90;99.90;;;;;;5091205;28;19905;-69
2023/01/06 03:01:05;;;;;;;;;;;12.90;99.90;;;;;;5075017;28;19916;-73
2023/01/06 03:03:32;;;;;;;;;;;12.90;99.90;;;;;;5091405;28;19904;-73
2023/01/06 03:06:02;;;;;;;;;;;13.00;99.90;;;;;;5090875;28;19904;-72
2023/01/06 03:08:29;;;;;;;;;;;13.00;99.90;;;;;;5091238;28;19919;-72
2023/01/06 03:10:56;;;;;;;;;;;13.00;99.90;;;;;;5090799;28;20056;-72
2023/01/06 03:13:35;;;;;;;;;;;13.00;99.90;;;;;;5055186;28;20385;-74
2023/01/06 03:16:02;;;;;;;;;;;13.00;99.90;;;;;;5090940;28;19904;-73
2023/01/06 03:18:30;;;;;;;;;;;13.00;99.90;;;;;;5090707;28;19966;-73
2023/01/06 03:20:58;;;;;;;;;;;13.00;99.90;;;;;;5090744;28;19997;-73
2023/01/06 03:23:26;;;;;;;;;;;13.00;99.90;;;;;;5090781;28;19930;-73
2023/01/06 03:25:51;;;;;;;;;;;12.90;99.90;;;;;;5090900;28;19973;-73
2023/01/06 03:28:17;;;;;;;;;;;13.00;99.90;;;;;;5090590;28;19908;-73
2023/01/06 03:30:54;;;;;;;;;;;13.00;99.90;;;;;;5090696;28;20388;-73
2023/01/06 03:33:23;;;;;;;;;;;12.90;99.90;;;;;;5090643;28;20197;-73
2023/01/06 03:35:52;;;;;;;;;;;12.90;99.90;;;;;;5090518;28;19983;-73
2023/01/06 03:38:26;;;;;;;;;;;13.00;99.90;;;;;;5090396;28;20339;-73
2023/01/06 03:40:57;;;;;;;;;;;13.00;99.90;;;;;;5090821;28;19904;-73
2023/01/06 03:43:49;;;;;;;;;;;12.90;99.90;;;;;;5072249;28;19938;-72
2023/01/06 03:46:21;;;;;;;;;;;12.90;99.90;;;;;;5085613;28;19937;-72
2023/01/06 03:49:04;;;;;;;;;;;12.80;99.90;;;;;;5090566;28;20005;-73
2023/01/06 03:51:30;;;;;;;;;;;12.80;99.90;;;;;;5090795;28;19998;-73
2023/01/06 03:54:00;;;;;;;;;;;12.80;99.90;;;;;;5090176;28;20367;-73
2023/01/06 03:56:28;;;;;;;;;;;12.70;99.90;;;;;;5072039;28;19904;-73
2023/01/06 03:58:57;;;;;;;;;;;12.70;99.90;;;;;;5071946;28;20339;-72
2023/01/06 04:01:25;;;;;;;;;;;12.70;99.90;;;;;;5082635;28;20339;-72
2023/01/06 04:03:52;;;;;;;;;;;12.60;99.90;;;;;;5069943;28;20005;-73
2023/01/06 04:06:17;;;;;;;;;;;12.60;99.90;;;;;;5070371;28;19905;-73
2023/01/06 04:08:46;;;;;;;;;;;12.60;99.90;;;;;;5069983;28;19935;-72
2023/01/06 04:12:37;;;;;;;;;;;12.60;99.90;;;;;;5081228;28;19904;-73
2023/01/06 04:13:58;;;;;;;;;;;12.50;99.90;;;;;;5090282;28;19904;-73
2023/01/06 04:16:24;;;;;;;;;;;12.40;99.90;;;;;;5090139;28;19912;-73
2023/01/06 04:18:50;;;;;;;;;;;12.40;99.90;;;;;;5090103;28;19943;-74
2023/01/06 04:21:16;;;;;;;;;;;12.40;99.90;;;;;;5090032;28;19911;-73
2023/01/06 04:23:42;;;;;;;;;;;12.40;99.90;;;;;;5090010;28;20368;-74
2023/01/06 04:26:07;;;;;;;;;;;12.30;99.90;;;;;;5093820;28;19904;-73
2023/01/06 04:28:33;;;;;;;;;;;12.30;99.90;;;;;;5093929;28;20006;-72
2023/01/06 04:31:00;;;;;;;;;;;12.40;99.90;;;;;;5093543;28;19927;-72
2023/01/06 04:33:26;;;;;;;;;;;12.40;99.90;;;;;;5093883;28;19919;-73
2023/01/06 04:35:52;;;;;;;;;;;12.40;99.90;;;;;;5093452;28;19922;-73
2023/01/06 04:38:17;;;;;;;;;;;12.40;99.90;;;;;;5093969;28;19904;-72
2023/01/06 04:40:45;;;;;;;;;;;12.50;99.90;;;;;;5093632;28;19904;-73
2023/01/06 04:43:15;;;;;;;;;;;12.50;99.90;;;;;;5093922;28;19904;-72
2023/01/06 04:45:42;;;;;;;;;;;12.50;99.90;;;;;;5093857;28;19954;-73
2023/01/06 04:48:09;;;;;;;;;;;12.50;99.90;;;;;;5093588;28;20373;-72
2023/01/06 04:50:36;;;;;;;;;;;12.50;99.90;;;;;;5093039;28;19908;-69
2023/01/06 04:53:02;;;;;;;;;;;12.50;99.90;;;;;;5093542;28;19907;-73
2023/01/06 04:55:29;;;;;;;;;;;12.60;99.90;;;;;;5093015;28;19919;-72
2023/01/06 04:57:55;;;;;;;;;;;12.60;99.90;;;;;;5093308;28;19908;-72
2023/01/06 05:00:21;;;;;;;;;;;12.60;99.90;;;;;;5093126;28;19910;-72
2023/01/06 05:02:47;;;;;;;;;;;12.60;99.90;;;;;;5093012;28;19911;-72
2023/01/06 05:05:14;;;;;;;;;;;12.50;99.90;;;;;;5092936;28;19908;-73
2023/01/06 05:07:40;;;;;;;;;;;12.50;99.90;;;;;;5092896;28;19915;-72
2023/01/06 05:10:07;;;;;;;;;;;12.60;99.90;;;;;;5092872;28;19912;-72
2023/01/06 05:12:33;;;;;;;;;;;12.60;99.90;;;;;;5093205;28;19916;-72
2023/01/06 05:15:00;;;;;;;;;;;12.60;99.90;;;;;;5092805;28;19904;-72
2023/01/06 05:17:27;;;;;;;;;;;12.60;99.90;;;;;;5092854;28;20426;-72
2023/01/06 05:19:53;;;;;;;;;;;12.60;99.90;;;;;;5074074;28;19908;-71
2023/01/06 05:22:19;;;;;;;;;;;12.60;99.90;;;;;;5092975;28;19904;-73
2023/01/06 05:24:45;;;;;;;;;;;12.60;99.90;;;;;;5092865;28;19908;-71
2023/01/06 05:27:12;;;;;;;;;;;12.70;99.90;;;;;;5092497;28;19911;-72
2023/01/06 05:29:38;;;;;;;;;;;12.70;99.90;;;;;;5074017;28;19912;-73
2023/01/06 05:32:04;;;;;;;;;;;12.70;99.90;;;;;;5092685;28;19908;-73
2023/01/06 05:34:30;;;;;;;;;;;12.60;99.90;;;;;;5073997;28;20253;-73
2023/01/06 05:36:57;;;;;;;;;;;12.60;99.90;;;;;;5091635;28;19908;-72
2023/01/06 05:39:23;;;;;;;;;;;12.60;99.90;;;;;;5092291;28;19904;-72
2023/01/06 05:41:51;;;;;;;;;;;12.60;99.90;;;;;;5083479;28;19957;-72
2023/01/06 05:44:17;;;;;;;;;;;12.60;99.90;;;;;;5072234;28;19904;-68
2023/01/06 05:46:43;;;;;;;;;;;12.60;99.90;;;;;;5073674;28;20360;-69
2023/01/06 05:49:09;;;;;;;;;;;12.60;99.90;;;;;;5073887;28;20348;-72
2023/01/06 05:51:35;;;;;;;;;;;12.60;99.90;;;;;;5072032;28;19904;-73
2023/01/06 05:54:00;;;;;;;;;;;12.60;99.90;;;;;;5087597;28;20237;-73
2023/01/06 05:56:27;;;;;;;;;;;12.60;99.90;;;;;;5090508;28;19919;-73
2023/01/06 05:58:53;;;;;;;;;;;12.60;99.90;;;;;;5090233;28;19947;-74
2023/01/06 06:01:20;;;;;;;;;;;12.60;99.90;;;;;;5090286;28;19962;-72
2023/01/06 06:03:46;;;;;;;;;;;12.60;99.90;;;;;;5091084;28;19983;-73
2023/01/06 06:06:13;;;;;;;;;;;12.70;99.90;;;;;;5092149;28;19998;-74
2023/01/06 06:08:38;;;;;;;;;;;12.70;99.90;;;;;;5091923;28;20006;-74
2023/01/06 06:11:06;;;;;;;;;;;12.70;99.90;;;;;;5092143;28;19908;-74
2023/01/06 06:13:32;;;;;;;;;;;12.70;99.90;;;;;;5092102;28;19911;-75
2023/01/06 06:16:05;;;;;;;;;;;12.70;99.90;;;;;;5092011;28;19912;-73
2023/01/06 06:18:30;;;;;;;;;;;12.70;99.90;;;;;;5091872;28;20351;-74
2023/01/06 06:21:03;;;;;;;;;;;12.70;99.90;;;;;;5073349;28;19904;-73
2023/01/06 06:23:29;;;;;;;;;;;12.70;99.90;;;;;;5073444;28;20351;-73
2023/01/06 06:25:55;;;;;;;;;;;12.70;99.90;;;;;;5091900;28;19954;-73
2023/01/06 06:28:21;;;;;;;;;;;12.70;99.90;;;;;;5091882;28;20011;-73
2023/01/06 06:30:47;;;;;;;;;;;12.70;99.90;;;;;;5089007;28;20585;-77
2023/01/06 06:33:12;;;;;;;;;;;12.70;99.90;;;;;;5071376;28;20398;-76
2023/01/06 06:35:38;;;;;;;;;;;12.70;99.90;;;;;;5053670;28;19953;-78
2023/01/06 06:38:04;;;;;;;;;;;12.70;99.90;;;;;;5071541;28;19908;-76
2023/01/06 06:40:30;;;;;;;;;;;12.80;99.90;;;;;;5076248;28;20209;-77
2023/01/06 06:42:56;;;;;;;;;;;12.80;99.90;;;;;;5091410;28;20277;-75
2023/01/06 06:45:22;;;;;;;;;;;12.80;99.90;;;;;;5091291;28;19954;-72
2023/01/06 06:47:48;;;;;;;;;;;12.90;99.90;;;;;;5091286;28;19904;-73
2023/01/06 06:50:14;;;;;;;;;;;12.90;99.90;;;;;;5091115;28;19908;-74
2023/01/06 06:52:40;;;;;;;;;;;12.90;99.90;;;;;;5090415;28;19923;-76
2023/01/06 06:55:06;;;;;;;;;;;12.90;99.90;;;;;;5090940;28;20011;-76
2023/01/06 06:57:34;;;;;;;;;;;13.00;99.90;;;;;;5091127;28;19943;-73
2023/01/06 06:59:59;;;;;;;;;;;12.90;99.90;;;;;;5090822;28;20307;-76
2023/01/06 07:02:25;;;;;;;;;;;13.00;99.90;;;;;;5091579;28;19962;-76
2023/01/06 07:04:51;;;;;;;;;;;13.00;99.90;;;;;;5091877;28;19904;-77
2023/01/06 07:07:17;;;;;;;;;;;13.00;99.90;;;;;;5091068;28;19910;-77
2023/01/06 07:09:43;;;;;;;;;;;12.90;99.90;;;;;;5090791;28;19926;-78
2023/01/06 07:12:10;;;;;;;;;;;13.00;99.90;;;;;;5090864;28;19904;-77
2023/01/06 07:14:36;;;;;;;;;;;13.00;99.90;;;;;;5090424;28;20014;-74
2023/01/06 07:17:02;;;;;;;;;;;13.00;99.90;;;;;;5072672;28;20003;-76
2023/01/06 07:19:28;;;;;;;;;;;13.00;99.90;;;;;;5090953;28;19904;-79
2023/01/06 07:21:53;;;;;;;;;;;13.10;99.90;;;;;;5091568;28;19911;-77
2023/01/06 07:24:19;;;;;;;;;;;13.10;99.90;;;;;;5072372;28;20352;-77
2023/01/06 07:26:45;;;;;;;;;;;13.10;99.90;;;;;;5091470;28;19991;-76
2023/01/06 07:29:11;;;;;;;;;;;13.10;99.90;;;;;;5090858;28;19912;-78
2023/01/06 07:31:36;;;;;;;;;;;13.20;99.90;;;;;;5072562;28;19959;-77
2023/01/06 07:34:04;;;;;;;;;;;13.20;99.90;;;;;;5072577;28;19916;-78
2023/01/06 07:36:29;;;;;;;;;;;13.30;99.90;;;;;;5090759;28;19943;-77
2023/01/06 07:38:55;;;;;;;;;;;13.30;99.90;;;;;;5090908;28;19973;-79
2023/01/06 07:41:25;;;;;;;;;;;13.40;99.90;;;;;;5090901;28;19904;-79
2023/01/06 07:43:51;;;;;;;;;;;13.30;99.90;;;;;;5091537;28;19904;-74
2023/01/06 07:46:17;;;;;;;;;;;13.40;99.90;;;;;;5091352;28;20216;-74
2023/01/06 07:48:43;;;;;;;;;;;13.40;99.90;;;;;;5091209;28;19908;-79
2023/01/06 07:51:09;;;;;;;;;;;13.50;99.90;;;;;;5072685;28;19904;-76
2023/01/06 07:53:36;;;;;;;;;;;13.60;99.90;;;;;;5090682;28;19908;-79
2023/01/06 07:56:01;;;;;;;;;;;13.70;99.90;;;;;;5091499;28;20252;-79
2023/01/06 07:58:28;;;;;;;;;;;13.80;99.90;;;;;;5091054;28;19911;-79
2023/01/06 08:00:55;;;;;;;;;;;13.80;99.90;;;;;;5095330;28;19911;-79
2023/01/06 08:03:21;;;;;;;;;;;13.90;99.90;;;;;;5077567;28;20023;-79
2023/01/06 08:05:49;;;;;;;;;;;13.90;99.90;;;;;;5095199;28;20231;-79
2023/01/06 08:08:14;;;;;;;;;;;13.80;99.90;;;;;;5076867;28;19912;-78
2023/01/06 08:10:42;;;;;;;;;;;13.90;99.90;;;;;;5094965;28;20011;-76
2023/01/06 08:13:08;;;;;;;;;;;13.90;99.90;;;;;;5094701;28;19903;-77
2023/01/06 08:15:35;;;;;;;;;;;13.90;99.90;;;;;;5094894;28;19909;-65
2023/01/06 08:18:01;;;;;;;;;;;13.90;99.90;;;;;;5094525;28;19957;-70
2023/01/06 08:20:28;;;;;;;;;;;14.00;99.90;;;;;;5076160;28;19904;-70
2023/01/06 08:22:54;;;;;;;;;;;14.10;99.90;;;;;;5094357;28;19904;-71
2023/01/06 08:25:20;;;;;;;;;;;14.30;99.90;;;;;;5094429;28;19904;-72
2023/01/06 08:27:45;;;;;;;;;;;14.40;99.90;;;;;;5094104;28;20405;-71
2023/01/06 08:30:11;;;;;;;;;;;14.40;99.90;;;;;;5093926;28;19907;-71
2023/01/06 08:32:37;;;;;;;;;;;14.40;99.90;;;;;;5093986;28;20212;-70
2023/01/06 08:35:03;;;;;;;;;;;14.30;99.90;;;;;;5093720;28;19904;-71
2023/01/06 08:37:29;;;;;;;;;;;14.30;99.90;;;;;;5093921;28;19904;-74
2023/01/06 08:39:55;;;;;;;;;;;14.50;99.90;;;;;;5094414;28;19995;-73
2023/01/06 08:42:21;;;;;;;;;;;14.50;99.90;;;;;;5075501;28;20249;-73
2023/01/06 08:44:46;;;;;;;;;;;14.60;99.90;;;;;;5093581;28;19969;-71
2023/01/06 08:47:12;;;;;;;;;;;14.80;99.90;;;;;;5094123;28;19957;-72
2023/01/06 08:49:38;;;;;;;;;;;14.90;99.90;;;;;;5093897;28;19935;-72
2023/01/06 08:52:04;;;;;;;;;;;14.70;99.90;;;;;;5093426;28;19904;-70
2023/01/06 08:54:30;;;;;;;;;;;14.60;99.90;;;;;;5074733;28;19933;-72
2023/01/06 08:56:56;;;;;;;;;;;14.40;99.90;;;;;;5093830;28;20402;-73
2023/01/06 08:59:22;;;;;;;;;;;14.60;99.90;;;;;;5094306;28;19927;-71
2023/01/06 09:01:48;;;;;;;;;;;14.80;99.90;;;;;;5093226;28;20209;-71
2023/01/06 09:04:13;;;;;;;;;;;15.10;99.90;;;;;;5093362;28;19915;-71
2023/01/06 09:06:41;;;;;;;;;;;15.40;99.90;;;;;;5074794;28;20204;-72
2023/01/06 09:09:08;;;;;;;;;;;15.70;99.90;;;;;;5093206;28;20068;-71
2023/01/06 09:11:35;;;;;;;;;;;15.70;99.90;;;;;;5091697;28;19911;-73
2023/01/06 09:14:00;;;;;;;;;;;15.70;99.90;;;;;;5093053;28;19907;-72
2023/01/06 09:16:26;;;;;;;;;;;15.70;99.90;;;;;;5074526;28;19919;-73
2023/01/06 09:18:56;;;;;;;;;;;15.70;99.90;;;;;;5093294;28;19994;-73
2023/01/06 09:21:24;;;;;;;;;;;15.90;99.90;;;;;;5092198;28;19943;-72
2023/01/06 09:23:49;;;;;;;;;;;16.10;99.90;;;;;;5074898;28;19908;-72
2023/01/06 09:26:17;;;;;;;;;;;16.30;99.90;;;;;;5075135;28;20263;-71
2023/01/06 09:28:43;;;;;;;;;;;16.50;99.90;;;;;;5093361;28;19966;-72
2023/01/06 09:31:11;;;;;;;;;;;16.30;99.90;;;;;;5092194;28;19904;-71
2023/01/06 09:33:36;;;;;;;;;;;16.60;99.90;;;;;;5093407;28;19934;-72
2023/01/06 09:36:03;;;;;;;;;;;16.60;99.90;;;;;;5089264;28;19904;-70
2023/01/06 09:38:30;;;;;;;;;;;16.50;99.90;;;;;;5092754;28;20264;-71
2023/01/06 09:40:55;;;;;;;;;;;16.80;99.90;;;;;;5092992;28;19903;-70
2023/01/06 09:43:36;;;;;;;;;;;17.10;99.90;;;;;;5074581;28;19957;-70
2023/01/06 09:46:04;;;;;;;;;;;17.30;99.90;;;;;;5092907;28;19974;-72
2023/01/06 09:48:36;;;;;;;;;;;17.50;99.90;;;;;;5092836;28;20239;-72
2023/01/06 09:51:03;;;;;;;;;;;17.60;99.90;;;;;;5092013;28;20385;-73
2023/01/06 09:53:40;;;;;;;;;;;17.60;99.90;;;;;;5092322;28;20415;-68
2023/01/06 09:56:14;;;;;;;;;;;17.70;99.90;;;;;;5092001;28;19920;-72
2023/01/06 09:58:46;;;;;;;;;;;17.90;99.90;;;;;;5092310;28;19928;-71
2023/01/06 10:01:16;;;;;;;;;;;18.10;99.90;;;;;;5092111;28;19962;-70
2023/01/06 10:03:44;;;;;;;;;;;18.20;99.90;;;;;;5092195;28;20011;-73
2023/01/06 10:06:28;;;;;;;;;;;18.20;99.90;;;;;;5092262;28;19912;-71
2023/01/06 10:09:01;;;;;;;;;;;18.10;99.90;;;;;;5092063;28;19908;-70
2023/01/06 10:11:36;;;;;;;;;;;18.00;99.90;;;;;;5092020;28;19904;-71
2023/01/06 10:14:10;;;;;;;;;;;17.90;99.90;;;;;;5092423;28;19936;-72
2023/01/06 10:16:43;;;;;;;;;;;18.10;99.90;;;;;;5092015;28;19908;-72
2023/01/06 10:19:27;;;;;;;;;;;18.30;99.90;;;;;;5091983;28;19996;-71
2023/01/06 10:22:00;;;;;;;;;;;18.40;99.90;;;;;;5091439;28;19980;-72
2023/01/06 10:24:34;;;;;;;;;;;18.50;99.90;;;;;;5091935;28;20432;-72
2023/01/06 10:27:29;;;;;;;;;;;18.70;99.90;;;;;;5092199;28;19911;-71
2023/01/06 10:29:56;;;;;;;;;;;18.80;99.90;;;;;;4989859;28;19958;-72
2023/01/06 10:32:24;;;;;;;;;;;18.80;99.90;;;;;;4990207;28;19997;-70
2023/01/06 10:34:50;;;;;;;;;;;19.00;99.90;;;;;;4990044;28;19906;-71
2023/01/06 10:37:15;;;;;;;;;;;19.10;99.90;;;;;;4989575;28;19906;-70
2023/01/06 10:39:43;;;;;;;;;;;19.20;99.90;;;;;;4990032;28;19906;-71
2023/01/06 10:45:09;;;;;;;;;;;19.70;99.90;;;;;;4989806;28;19913;-71
2023/01/06 10:47:35;;;;;;;;;;;19.80;99.90;;;;;;4989815;28;19946;-72
2023/01/06 10:50:01;;;;;;;;;;;19.80;99.90;;;;;;4989357;28;19977;-71
2023/01/06 10:52:26;;;;;;;;;;;19.90;99.90;;;;;;4989590;28;20114;-69
2023/01/06 10:54:58;;;;;;;;;;;19.90;99.90;;;;;;5018038;22;19990;-74
2023/01/06 10:57:31;;;;;;;;;;;20.00;99.90;;;;;;5070949;28;19920;-69
2023/01/06 11:00:07;;;;;;;;;;;20.10;99.90;;;;;;5062821;28;19904;-71
2023/01/06 11:02:33;;;;;;;;;;;20.00;99.90;;;;;;5069469;28;19912;-72
2023/01/06 11:05:02;;;;;;;;;;;19.90;99.90;;;;;;5069924;28;20082;-70
2023/01/06 11:07:29;;;;;;;;;;;19.90;99.90;;;;;;5070439;28;20287;-71
2023/01/06 11:09:56;;;;;;;;;;;20.00;99.90;;;;;;5070481;28;19912;-71
2023/01/06 11:12:41;;;;;;;;;;;20.00;99.90;;;;;;5086765;28;19968;-71
2023/01/06 11:15:11;;;;;;;;;;;19.90;99.90;;;;;;5090218;28;19904;-68
2023/01/06 11:17:37;;;;;;;;;;;20.00;99.90;;;;;;5057937;28;19904;-70
2023/01/06 11:20:11;;;;;;;;;;;20.00;99.90;;;;;;5070534;28;20054;-70
2023/01/06 11:22:40;;;;;;;;;;;19.90;99.90;;;;;;5052855;28;20442;-70
2023/01/06 11:25:31;;;;;;;;;;;20.10;99.90;;;;;;5070947;28;19904;-71
2023/01/06 11:28:18;;;;;;;;;;;20.00;99.90;;;;;;5071019;28;19904;-72
2023/01/06 11:30:44;;;;;;;;;;;20.00;99.90;;;;;;5070499;28;20005;-70
2023/01/06 11:33:19;;;;;;;;;;;19.90;99.90;;;;;;5070368;28;20050;-70
2023/01/06 11:35:45;;;;;;;;;;;19.80;99.90;;;;;;5070586;28;19904;-72
2023/01/06 11:38:16;;;;;;;;;;;19.50;99.90;;;;;;5070931;28;19958;-70
2023/01/06 11:40:44;;;;;;;;;;;19.10;99.90;;;;;;5070165;28;19912;-69
2023/01/06 11:43:14;;;;;;;;;;;18.90;99.90;;;;;;5070534;28;19911;-70
2023/01/06 11:45:53;;;;;;;;;;;18.80;99.90;;;;;;5090909;28;19977;-71
2023/01/06 11:48:21;;;;;;;;;;;18.70;99.90;;;;;;5090794;28;19912;-70
2023/01/06 11:50:54;;;;;;;;;;;18.80;99.90;;;;;;5090836;28;19986;-70
2023/01/06 11:53:20;;;;;;;;;;;18.80;99.90;;;;;;5090611;28;19904;-70
2023/01/06 11:56:05;;;;;;;;;;;19.10;99.90;;;;;;5090512;28;19928;-72
2023/01/06 11:58:34;;;;;;;;;;;19.50;99.90;;;;;;5090918;28;20263;-70
2023/01/06 12:01:08;;;;;;;;;;;19.50;99.90;;;;;;5085769;28;20209;-71
2023/01/06 12:03:42;;;;;;;;;;;19.60;99.90;;;;;;5070296;28;19904;-70
2023/01/06 12:06:26;;;;;;;;;;;19.80;99.90;;;;;;5070401;28;19915;-71
2023/01/06 12:09:03;;;;;;;;;;;19.90;99.90;;;;;;5070590;28;19931;-71
2023/01/06 12:11:32;;;;;;;;;;;19.80;99.90;;;;;;5083767;28;20331;-70
2023/01/06 12:13:59;;;;;;;;;;;20.20;99.90;;;;;;5090915;28;19904;-71
2023/01/06 12:16:39;;;;;;;;;;;20.60;99.90;;;;;;5090807;28;19904;-71
2023/01/06 12:19:13;;;;;;;;;;;20.60;99.90;;;;;;5090744;28;20359;-71
2023/01/06 12:21:40;;;;;;;;;;;20.70;99.90;;;;;;5090738;28;19904;-71
2023/01/06 12:24:06;;;;;;;;;;;20.90;99.90;;;;;;5090922;28;19984;-71
2023/01/06 12:26:34;;;;;;;;;;;21.10;99.90;;;;;;5072203;28;20433;-71
2023/01/06 12:29:01;;;;;;;;;;;21.00;99.90;;;;;;5090594;28;20253;-70
2023/01/06 12:31:46;;;;;;;;;;;21.00;99.90;;;;;;5082250;28;19949;-70
2023/01/06 12:34:16;;;;;;;;;;;20.90;99.90;;;;;;5070066;28;19916;-70
2023/01/06 12:36:55;;;;;;;;;;;20.70;99.90;;;;;;5051766;28;19904;-71
2023/01/06 12:39:26;;;;;;;;;;;20.60;99.90;;;;;;5070418;28;19951;-72
2023/01/06 12:42:18;;;;;;;;;;;20.50;99.90;;;;;;5086991;28;19911;-70
2023/01/06 12:45:10;;;;;;;;;;;20.70;99.90;;;;;;5091086;28;19904;-70
2023/01/06 12:48:08;;;;;;;;;;;20.90;99.90;;;;;;5012147;28;20122;-71
2023/01/06 12:50:39;;;;;;;;;;;20.90;99.90;;;;;;4972623;28;19914;-70
2023/01/06 12:53:10;;;;;;;;;;;20.40;99.90;;;;;;4972582;28;20311;-72
2023/01/06 12:56:02;;;;;;;;;;;20.20;99.90;;;;;;4964475;28;19919;-70
2023/01/06 12:58:31;;;;;;;;;;;20.00;99.90;;;;;;4934256;29;20010;-70
2023/01/06 13:01:04;;;;;;;;;;;20.00;99.90;;;;;;4923005;29;20308;-68
2023/01/06 13:03:30;;;;;;;;;;;19.80;99.90;;;;;;4931960;29;20009;-72
2023/01/06 13:06:07;;;;;;;;;;;19.80;99.90;;;;;;4952851;29;20009;-70
2023/01/06 13:08:52;;;;;;;;;;;19.80;99.90;;;;;;4952954;29;19914;-69
2023/01/06 13:11:36;;;;;;;;;;;19.70;99.90;;;;;;4906973;29;19907;-71
2023/01/06 13:14:05;;;;;;;;;;;19.70;99.90;;;;;;4915232;29;19907;-70
2023/01/06 13:16:50;;;;;;;;;;;19.70;99.90;;;;;;4914810;29;20379;-73
2023/01/06 13:19:21;;;;;;;;;;;19.70;99.90;;;;;;4914827;29;20061;-71
2023/01/06 13:21:50;;;;;;;;;;;19.70;99.90;;;;;;4915006;29;19907;-71
2023/01/06 13:24:17;;;;;;;;;;;19.60;99.90;;;;;;4914519;29;20002;-68
2023/01/06 13:26:51;;;;;;;;;;;19.50;99.90;;;;;;4971369;28;19953;-70
2023/01/06 13:29:17;;;;;;;;;;;19.40;99.90;;;;;;4994314;28;19913;-71
2023/01/06 13:31:43;;;;;;;;;;;19.70;99.90;;;;;;5010989;28;19909;-69
2023/01/06 13:34:08;;;;;;;;;;;19.80;99.90;;;;;;5012273;28;20376;-71
2023/01/06 13:36:40;;;;;;;;;;;19.70;99.90;;;;;;5052456;28;19963;-71
2023/01/06 13:39:10;;;;;;;;;;;19.70;99.90;;;;;;5052438;28;19905;-71
2023/01/06 13:41:38;;;;;;;;;;;19.80;99.90;;;;;;5066923;28;19947;-72
2023/01/06 13:44:04;;;;;;;;;;;19.80;99.90;;;;;;5072343;28;19904;-72
2023/01/06 13:46:31;;;;;;;;;;;19.80;99.90;;;;;;5054322;28;19921;-71
2023/01/06 13:49:01;;;;;;;;;;;19.50;99.90;;;;;;5072338;28;20011;-71
2023/01/06 13:51:35;;;;;;;;;;;19.70;99.90;;;;;;5072330;28;19955;-71
2023/01/06 13:54:01;;;;;;;;;;;19.90;99.90;;;;;;5072524;28;19927;-71
2023/01/06 13:56:28;;;;;;;;;;;19.90;99.90;;;;;;5068169;28;19920;-71
2023/01/06 13:59:17;;;;;;;;;;;19.80;99.90;;;;;;5092500;28;19904;-71
2023/01/06 14:01:43;;;;;;;;;;;19.90;99.90;;;;;;5062946;28;19908;-71
2023/01/06 14:04:27;;;;;;;;;;;19.90;99.90;;;;;;5053216;28;19908;-71
2023/01/06 14:06:54;;;;;;;;;;;20.00;99.90;;;;;;5050455;28;19908;-71
2023/01/06 14:09:20;;;;;;;;;;;19.90;99.90;;;;;;5051964;28;20027;-73
2023/01/06 14:11:49;;;;;;;;;;;19.90;99.90;;;;;;5033715;28;19982;-71
2023/01/06 14:14:28;;;;;;;;;;;20.00;99.90;;;;;;5060381;28;19938;-71
2023/01/06 14:16:54;;;;;;;;;;;20.10;99.90;;;;;;5054892;28;20343;-70
2023/01/06 14:19:35;;;;;;;;;;;20.00;99.90;;;;;;5054694;28;20259;-70
2023/01/06 14:22:24;;;;;;;;;;;19.90;99.90;;;;;;5070971;28;19948;-71
2023/01/06 14:24:52;;;;;;;;;;;19.90;99.90;;;;;;5059689;28;19911;-71
2023/01/06 14:27:37;;;;;;;;;;;19.80;99.90;;;;;;5072717;28;19959;-72
2023/01/06 14:30:22;;;;;;;;;;;19.70;99.90;;;;;;5072522;28;19923;-69
2023/01/06 14:32:47;;;;;;;;;;;19.70;99.90;;;;;;5072268;28;19999;-69
2023/01/06 14:35:16;;;;;;;;;;;19.80;99.90;;;;;;5072662;28;19944;-69